Time;durP1;ratioP1;P1;durP2;ratioP2;P2;SDS_P1;SDS_P2;PMS_P1;PMS_P2;Temp;Humidity;BMP_temperature;BMP_pressure;BME280_temperature;BME280_humidity;BME280_pressure;Samples;Min_cycle;Max_cycle;Signal;HPM_P1;HPM_P2
2023/06/28 00:02:36;;;;;;;1.98;1.52;;;25.10;51.30;;;;;;7613054;22;83417;-71
2023/06/28 00:05:36;;;;;;;4.05;2.17;;;25.10;51.40;;;;;;7638765;22;80427;-69
2023/06/28 00:08:40;;;;;;;4.18;1.50;;;25.00;51.20;;;;;;7638560;22;80160;-68
2023/06/28 00:11:41;;;;;;;3.83;2.25;;;25.00;51.30;;;;;;7639297;22;80982;-68
2023/06/28 00:14:41;;;;;;;3.40;1.63;;;25.00;51.40;;;;;;7642655;22;80137;-68
2023/06/28 00:17:42;;;;;;;3.25;1.52;;;25.00;51.40;;;;;;7640744;22;80684;-69
2023/06/28 00:20:42;;;;;;;4.40;1.40;;;25.10;51.40;;;;;;7641686;22;80784;-70
2023/06/28 00:23:43;;;;;;;1.88;1.25;;;25.00;51.50;;;;;;7643149;22;82881;-68
2023/06/28 00:26:43;;;;;;;3.38;1.50;;;25.00;51.50;;;;;;7640158;22;83503;-59
2023/06/28 00:29:44;;;;;;;3.15;1.60;;;25.00;51.50;;;;;;7642422;22;80755;-58
2023/06/28 00:32:44;;;;;;;2.50;1.45;;;25.00;51.50;;;;;;7616579;22;80183;-59
2023/06/28 00:35:45;;;;;;;2.45;1.45;;;25.00;51.60;;;;;;7614806;22;82745;-59
2023/06/28 00:38:45;;;;;;;2.20;1.20;;;25.00;51.60;;;;;;7642312;22;80745;-59
2023/06/28 00:41:46;;;;;;;3.65;1.50;;;25.00;51.70;;;;;;7642444;22;79943;-58
2023/06/28 00:44:46;;;;;;;4.63;2.10;;;25.00;51.70;;;;;;7642589;22;81073;-67
2023/06/28 00:47:47;;;;;;;2.70;1.50;;;25.00;51.70;;;;;;7642848;22;80272;-67
2023/06/28 00:50:47;;;;;;;3.88;1.33;;;25.00;51.70;;;;;;7642758;22;80313;-68
2023/06/28 00:53:48;;;;;;;2.05;1.45;;;25.00;51.80;;;;;;7614839;22;83532;-66
2023/06/28 00:56:49;;;;;;;1.85;1.30;;;25.00;51.80;;;;;;7642914;22;80338;-67
2023/06/28 00:59:50;;;;;;;4.75;1.42;;;25.00;51.80;;;;;;7642293;22;80109;-66
2023/06/28 01:02:50;;;;;;;3.17;1.73;;;25.00;51.80;;;;;;7644275;22;80959;-60
2023/06/28 01:05:52;;;;;;;3.05;1.38;;;25.00;51.80;;;;;;7614853;22;83325;-60
2023/06/28 01:08:52;;;;;;;2.05;1.50;;;25.00;51.90;;;;;;7642605;22;80440;-61
2023/06/28 01:11:53;;;;;;;2.55;1.30;;;25.00;51.90;;;;;;7642135;22;81316;-59
2023/06/28 01:14:54;;;;;;;2.30;1.38;;;24.90;51.90;;;;;;7643125;22;80593;-59
2023/06/28 01:17:55;;;;;;;1.92;1.20;;;25.00;52.00;;;;;;7642427;22;80786;-59
2023/06/28 01:20:55;;;;;;;2.50;1.55;;;25.00;52.10;;;;;;7615575;22;83035;-68
2023/06/28 01:23:56;;;;;;;2.33;1.50;;;25.00;52.10;;;;;;7642927;22;80791;-68
2023/06/28 01:26:58;;;;;;;2.60;1.40;;;24.90;52.00;;;;;;7642921;22;80271;-68
2023/06/28 01:29:58;;;;;;;2.03;1.30;;;25.00;52.10;;;;;;7642948;22;80256;-68
2023/06/28 01:32:59;;;;;;;2.85;1.30;;;25.00;52.10;;;;;;7644133;22;80316;-69
2023/06/28 01:36:02;;;;;;;4.78;1.83;;;24.90;52.10;;;;;;7616923;22;81420;-69
2023/06/28 01:39:02;;;;;;;2.85;1.40;;;24.90;52.20;;;;;;7617395;22;81577;-71
2023/06/28 01:42:03;;;;;;;2.63;1.38;;;24.90;52.20;;;;;;7645119;22;80580;-69
2023/06/28 01:45:04;;;;;;;1.90;1.13;;;24.90;52.30;;;;;;7644340;22;80509;-69
2023/06/28 01:48:04;;;;;;;2.13;1.38;;;24.90;52.30;;;;;;7617463;22;83018;-69
2023/06/28 01:51:05;;;;;;;1.63;1.10;;;24.90;52.30;;;;;;7643222;22;80452;-71
2023/06/28 01:54:05;;;;;;;1.85;1.20;;;24.90;52.30;;;;;;7644160;22;80902;-69
2023/06/28 01:57:06;;;;;;;1.52;1.20;;;24.90;52.30;;;;;;7644296;22;81321;-70
2023/06/28 02:00:10;;;;;;;2.15;1.30;;;24.90;52.30;;;;;;7616032;22;83087;-68
2023/06/28 02:03:24;;;;;;;2.15;1.60;;;24.90;52.40;;;;;;7617614;22;83396;-69
2023/06/28 02:06:24;;;;;;;4.25;1.70;;;24.90;52.40;;;;;;7616680;22;81572;-68
2023/06/28 02:09:25;;;;;;;1.70;1.23;;;24.90;52.40;;;;;;7644382;22;80486;-68
2023/06/28 02:12:25;;;;;;;2.00;1.40;;;24.90;52.40;;;;;;7616621;22;81695;-69
2023/06/28 02:15:26;;;;;;;2.08;1.40;;;24.90;52.40;;;;;;7643898;22;81326;-59
2023/06/28 02:18:26;;;;;;;1.63;1.27;;;24.90;52.50;;;;;;7644010;22;80610;-59
2023/06/28 02:21:27;;;;;;;2.72;1.30;;;24.90;52.50;;;;;;7615831;22;81308;-59
2023/06/28 02:24:27;;;;;;;1.98;1.33;;;24.90;52.50;;;;;;7644042;22;80901;-59
2023/06/28 02:27:28;;;;;;;2.90;1.25;;;24.90;52.50;;;;;;7616496;22;83257;-58
2023/06/28 02:30:28;;;;;;;2.25;1.55;;;24.90;52.60;;;;;;7643017;22;80397;-59
2023/06/28 02:33:29;;;;;;;2.60;1.42;;;24.90;52.70;;;;;;7643376;22;80360;-59
2023/06/28 02:36:29;;;;;;;2.58;1.52;;;24.90;52.70;;;;;;7643224;22;81086;-59
2023/06/28 02:39:30;;;;;;;3.35;1.40;;;24.90;52.70;;;;;;7642632;22;81310;-58
2023/06/28 02:42:30;;;;;;;3.70;1.52;;;24.80;52.70;;;;;;7617018;22;80455;-58
2023/06/28 02:45:31;;;;;;;3.25;1.70;;;24.90;52.80;;;;;;7616002;22;83336;-59
2023/06/28 02:48:32;;;;;;;2.55;1.73;;;24.90;52.80;;;;;;7617329;22;83918;-58
2023/06/28 02:51:32;;;;;;;2.28;1.33;;;24.90;52.70;;;;;;7615422;22;82955;-62
2023/06/28 02:54:36;;;;;;;1.42;1.10;;;24.90;52.80;;;;;;7616252;22;82396;-62
2023/06/28 02:57:37;;;;;;;2.22;1.10;;;24.90;52.70;;;;;;7615370;22;83285;-61
2023/06/28 03:00:46;;;;;;;3.05;1.80;;;24.90;52.70;;;;;;7616285;22;82814;-61
2023/06/28 03:03:47;;;;;;;1.85;1.25;;;24.90;52.70;;;;;;7615712;22;83171;-61
2023/06/28 03:06:49;;;;;;;4.10;1.70;;;24.90;52.70;;;;;;7641987;22;80313;-61
2023/06/28 03:09:49;;;;;;;2.40;1.40;;;24.90;52.70;;;;;;7642963;22;80573;-62
2023/06/28 03:12:50;;;;;;;2.47;1.55;;;24.90;52.70;;;;;;7616455;22;83626;-61
2023/06/28 03:15:50;;;;;;;4.13;1.77;;;24.90;52.80;;;;;;7616602;22;83564;-60
2023/06/28 03:18:54;;;;;;;3.60;1.35;;;24.90;52.70;;;;;;7616183;22;82435;-60
2023/06/28 03:21:54;;;;;;;2.28;1.27;;;24.90;52.80;;;;;;7642640;22;80271;-60
2023/06/28 03:24:55;;;;;;;2.60;1.40;;;24.90;52.70;;;;;;7616328;22;83582;-59
2023/06/28 03:27:56;;;;;;;2.38;1.50;;;24.90;52.70;;;;;;7613613;22;82466;-60
2023/06/28 03:30:57;;;;;;;3.00;1.40;;;24.80;52.70;;;;;;7616289;22;83199;-61
2023/06/28 03:33:57;;;;;;;3.13;1.70;;;24.90;52.80;;;;;;7617146;22;83083;-61
2023/06/28 03:36:58;;;;;;;2.60;1.25;;;24.80;52.80;;;;;;7642720;22;86610;-61
2023/06/28 03:39:58;;;;;;;2.53;1.50;;;24.90;53.00;;;;;;7616646;22;82511;-60
2023/06/28 03:42:59;;;;;;;3.97;1.42;;;24.90;53.00;;;;;;7616805;22;83508;-60
2023/06/28 03:45:59;;;;;;;2.35;1.15;;;24.90;52.90;;;;;;7615469;22;83612;-59
2023/06/28 03:49:00;;;;;;;4.03;1.50;;;24.90;52.90;;;;;;7641872;22;80580;-59
2023/06/28 03:52:00;;;;;;;2.47;1.50;;;24.90;52.90;;;;;;7615493;22;83116;-59
2023/06/28 03:55:01;;;;;;;3.70;1.00;;;24.90;53.10;;;;;;7642175;22;81139;-59
2023/06/28 03:58:02;;;;;;;5.03;1.75;;;25.00;53.10;;;;;;7616107;22;83135;-59
2023/06/28 04:01:03;;;;;;;4.00;1.60;;;25.00;52.90;;;;;;7641237;22;80073;-59
2023/06/28 04:04:03;;;;;;;2.28;1.30;;;24.90;52.90;;;;;;7641566;22;80244;-68
2023/06/28 04:07:04;;;;;;;2.42;1.70;;;24.90;52.90;;;;;;7642367;22;81095;-68
2023/06/28 04:10:04;;;;;;;2.28;1.40;;;24.90;52.90;;;;;;7643556;22;80826;-67
2023/06/28 04:13:06;;;;;;;6.97;1.30;;;24.90;53.00;;;;;;7639918;22;80533;-73
2023/06/28 04:16:06;;;;;;;3.17;1.80;;;24.90;53.00;;;;;;7641987;22;80603;-62
2023/06/28 04:19:07;;;;;;;5.15;1.80;;;24.90;53.00;;;;;;7628837;22;80785;-68
2023/06/28 04:22:08;;;;;;;5.70;1.52;;;24.90;53.10;;;;;;7641224;22;82143;-66
2023/06/28 04:25:08;;;;;;;6.47;1.65;;;24.90;53.20;;;;;;7638833;22;80570;-60
2023/06/28 04:28:09;;;;;;;7.82;1.42;;;24.90;53.10;;;;;;7640711;22;80318;-59
2023/06/28 04:31:10;;;;;;;3.45;1.50;;;24.90;53.10;;;;;;7640708;22;80337;-61
2023/06/28 04:34:10;;;;;;;3.20;1.42;;;24.90;53.30;;;;;;7640904;22;80428;-62
2023/06/28 04:37:11;;;;;;;4.88;1.40;;;24.90;53.40;;;;;;7638227;22;80231;-58
2023/06/28 04:40:12;;;;;;;1.70;1.48;;;24.90;53.10;;;;;;7640430;22;80220;-61
2023/06/28 04:43:13;;;;;;;4.05;1.65;;;24.90;53.00;;;;;;7640445;22;82116;-60
2023/06/28 04:46:14;;;;;;;3.00;1.20;;;24.90;53.10;;;;;;7639521;22;80382;-61
2023/06/28 04:49:15;;;;;;;4.45;1.65;;;24.90;52.90;;;;;;7642292;22;80831;-60
2023/06/28 04:52:15;;;;;;;5.95;1.50;;;24.90;52.70;;;;;;7642531;22;80240;-59
2023/06/28 04:55:16;;;;;;;10.82;1.63;;;24.90;52.80;;;;;;7641912;22;80502;-60
2023/06/28 04:58:17;;;;;;;8.25;1.95;;;25.00;53.00;;;;;;7642488;22;80989;-60
2023/06/28 05:01:18;;;;;;;7.18;1.60;;;24.90;52.80;;;;;;7638896;22;80507;-68
2023/06/28 05:04:18;;;;;;;4.13;1.80;;;25.00;53.00;;;;;;7640143;22;80290;-68
2023/06/28 05:07:19;;;;;;;3.08;1.70;;;25.00;53.10;;;;;;7642934;22;81577;-67
2023/06/28 05:10:20;;;;;;;3.95;1.52;;;25.00;53.10;;;;;;7640829;22;80575;-69
2023/06/28 05:13:20;;;;;;;3.58;1.88;;;25.00;53.20;;;;;;7642151;22;80303;-68
2023/06/28 05:16:21;;;;;;;4.22;1.95;;;25.00;53.20;;;;;;7642160;22;81260;-68
2023/06/28 05:19:21;;;;;;;3.67;1.40;;;25.00;53.30;;;;;;7642013;22;80531;-66
2023/06/28 05:22:23;;;;;;;4.90;1.35;;;25.10;53.30;;;;;;7644334;22;80181;-71
2023/06/28 05:25:24;;;;;;;5.78;2.03;;;25.10;53.40;;;;;;7644699;22;80608;-72
2023/06/28 05:28:25;;;;;;;2.35;1.23;;;25.10;53.30;;;;;;7637581;22;81016;-67
2023/06/28 05:31:26;;;;;;;2.95;1.48;;;25.10;53.00;;;;;;7631748;22;81054;-64
2023/06/28 05:34:27;;;;;;;1.58;1.20;;;25.00;52.60;;;;;;7640017;22;81345;-63
2023/06/28 05:37:27;;;;;;;2.22;1.40;;;24.90;52.20;;;;;;7634161;22;81109;-71
2023/06/28 05:40:28;;;;;;;8.82;1.70;;;24.90;52.40;;;;;;7638254;22;80550;-66
2023/06/28 05:43:28;;;;;;;4.55;1.67;;;24.80;52.60;;;;;;7637189;22;81020;-64
2023/06/28 05:46:29;;;;;;;7.22;2.00;;;24.80;52.50;;;;;;7635133;22;80391;-64
2023/06/28 05:49:31;;;;;;;5.55;1.80;;;24.30;52.50;;;;;;7639094;22;80454;-65
2023/06/28 05:52:32;;;;;;;2.22;1.23;;;24.40;52.60;;;;;;7570255;22;82148;-67
2023/06/28 05:55:32;;;;;;;2.63;1.50;;;24.20;52.50;;;;;;7545220;22;81080;-66
2023/06/28 05:58:33;;;;;;;4.90;1.60;;;24.30;52.40;;;;;;7638713;22;80808;-65
2023/06/28 06:01:33;;;;;;;4.85;1.67;;;24.20;52.30;;;;;;7640030;22;80753;-65
2023/06/28 06:04:34;;;;;;;2.42;1.38;;;24.30;52.30;;;;;;7639855;22;80983;-65
2023/06/28 06:07:39;;;;;;;4.90;2.00;;;24.40;52.20;;;;;;7639671;22;80542;-66
2023/06/28 06:10:39;;;;;;;4.40;1.70;;;24.10;52.50;;;;;;7640006;22;80680;-65
2023/06/28 06:13:40;;;;;;;3.33;1.85;;;24.20;52.60;;;;;;7638912;22;80671;-59
2023/06/28 06:16:41;;;;;;;3.75;1.40;;;24.30;52.40;;;;;;7636848;22;80582;-59
2023/06/28 06:19:41;;;;;;;3.33;1.63;;;24.10;52.30;;;;;;7641710;22;80428;-59
2023/06/28 06:22:42;;;;;;;4.90;1.80;;;23.90;52.50;;;;;;7642191;22;80045;-59
2023/06/28 06:25:42;;;;;;;2.92;1.30;;;23.40;53.30;;;;;;7641412;22;81594;-59
2023/06/28 06:28:43;;;;;;;3.13;1.90;;;23.40;53.30;;;;;;7643392;22;80274;-60
2023/06/28 06:31:43;;;;;;;4.07;1.80;;;23.70;53.30;;;;;;7642883;22;80193;-59
2023/06/28 06:34:44;;;;;;;5.80;1.60;;;23.80;53.00;;;;;;7642629;22;81660;-59
2023/06/28 06:37:46;;;;;;;5.60;1.70;;;23.60;52.80;;;;;;7642950;22;80608;-60
2023/06/28 06:40:48;;;;;;;4.75;1.58;;;23.30;53.10;;;;;;7641695;22;80981;-59
2023/06/28 06:43:49;;;;;;;2.78;1.65;;;23.40;53.40;;;;;;7633230;22;80842;-59
2023/06/28 06:46:49;;;;;;;4.70;1.73;;;23.40;53.30;;;;;;7643498;22;80382;-60
2023/06/28 06:49:50;;;;;;;3.85;1.50;;;23.40;53.60;;;;;;7642468;22;81095;-64
2023/06/28 06:52:50;;;;;;;2.75;1.65;;;23.30;53.50;;;;;;7641857;22;80543;-63
2023/06/28 06:55:51;;;;;;;7.63;2.20;;;23.20;54.20;;;;;;7642089;22;80068;-63
2023/06/28 06:58:52;;;;;;;6.72;1.83;;;23.40;53.60;;;;;;7616630;22;81360;-62
2023/06/28 07:01:52;;;;;;;3.47;1.50;;;23.40;53.70;;;;;;7642419;22;80626;-63
2023/06/28 07:04:53;;;;;;;2.45;1.70;;;23.40;53.50;;;;;;7642827;22;81098;-63
2023/06/28 07:07:54;;;;;;;3.40;1.55;;;23.40;53.70;;;;;;7643246;22;80316;-61
2023/06/28 07:10:55;;;;;;;6.35;2.08;;;23.20;53.10;;;;;;7641909;22;80258;-62
2023/06/28 07:13:55;;;;;;;3.03;1.92;;;23.30;53.70;;;;;;7643224;22;80797;-64
2023/06/28 07:16:56;;;;;;;9.32;2.22;;;23.60;53.60;;;;;;7641524;22;80357;-62
2023/06/28 07:19:59;;;;;;;25.98;11.95;;;23.50;53.10;;;;;;7640837;22;80356;-66
2023/06/28 07:22:59;;;;;;;76.90;33.88;;;23.60;53.40;;;;;;7635282;22;83359;-67
2023/06/28 07:26:00;;;;;;;96.72;49.22;;;23.70;53.30;;;;;;7636204;22;83475;-66
2023/06/28 07:29:00;;;;;;;167.93;79.80;;;24.00;52.90;;;;;;7637337;22;83399;-62
2023/06/28 07:32:01;;;;;;;147.13;74.45;;;24.00;52.60;;;;;;7637849;22;82711;-59
2023/06/28 07:35:01;;;;;;;94.68;46.88;;;24.00;52.40;;;;;;7638297;22;83629;-59
2023/06/28 07:38:02;;;;;;;91.95;45.10;;;24.00;51.80;;;;;;7637894;22;83894;-59
2023/06/28 07:41:02;;;;;;;72.32;36.17;;;24.00;52.30;;;;;;7637785;22;82721;-60
2023/06/28 07:44:03;;;;;;;64.65;30.27;;;24.10;52.10;;;;;;7636666;22;83047;-60
2023/06/28 07:47:04;;;;;;;36.92;17.05;;;24.20;51.90;;;;;;7634485;22;84725;-59
2023/06/28 07:50:04;;;;;;;30.65;14.15;;;24.00;52.10;;;;;;7637271;22;83455;-59
2023/06/28 07:53:05;;;;;;;21.58;10.77;;;24.00;52.10;;;;;;7636228;22;82633;-58
2023/06/28 07:56:05;;;;;;;11.23;6.47;;;23.80;52.40;;;;;;7637837;22;83552;-59
2023/06/28 07:59:06;;;;;;;14.20;5.63;;;23.70;52.50;;;;;;7625570;22;82972;-60
2023/06/28 08:02:06;;;;;;;9.45;4.68;;;23.60;53.00;;;;;;7634925;22;80639;-59
2023/06/28 08:05:07;;;;;;;8.10;4.20;;;23.60;53.50;;;;;;7641463;22;80452;-59
2023/06/28 08:08:08;;;;;;;21.92;4.15;;;23.80;53.10;;;;;;7641948;22;80991;-59
2023/06/28 08:11:08;;;;;;;6.28;3.00;;;23.90;52.90;;;;;;7642119;22;80590;-64
2023/06/28 08:14:09;;;;;;;6.82;2.90;;;23.90;52.90;;;;;;7630370;22;80545;-59
2023/06/28 08:17:09;;;;;;;4.53;2.35;;;23.90;53.10;;;;;;7639947;22;80623;-62
2023/06/28 08:20:10;;;;;;;4.20;1.95;;;24.00;53.20;;;;;;7641645;22;79984;-61
2023/06/28 08:23:10;;;;;;;10.00;1.90;;;24.10;52.80;;;;;;7641322;22;80417;-61
2023/06/28 08:26:11;;;;;;;3.10;1.63;;;23.80;53.30;;;;;;7639504;22;81449;-61
2023/06/28 08:29:11;;;;;;;4.70;1.85;;;24.00;53.40;;;;;;7632798;22;80842;-60
2023/06/28 08:32:12;;;;;;;10.45;2.45;;;24.00;53.50;;;;;;7642377;22;80824;-60
2023/06/28 08:35:12;;;;;;;2.85;1.73;;;24.10;53.60;;;;;;7638008;22;80399;-61
2023/06/28 08:38:13;;;;;;;3.97;1.75;;;24.10;53.70;;;;;;7640985;22;80710;-60
2023/06/28 08:41:13;;;;;;;8.88;2.53;;;24.30;53.40;;;;;;7623996;22;80646;-60
2023/06/28 08:44:14;;;;;;;16.70;2.42;;;24.40;53.50;;;;;;7623071;22;79979;-59
2023/06/28 08:47:14;;;;;;;7.32;1.90;;;24.50;53.10;;;;;;7641492;22;80436;-61
2023/06/28 08:50:15;;;;;;;4.50;1.63;;;24.60;53.10;;;;;;7641005;22;80174;-59
2023/06/28 08:53:16;;;;;;;5.30;1.80;;;24.70;52.90;;;;;;7631950;22;80598;-60
2023/06/28 08:56:16;;;;;;;11.18;2.08;;;24.80;52.50;;;;;;7637022;22;81028;-58
2023/06/28 08:59:17;;;;;;;12.18;2.10;;;24.90;52.10;;;;;;7639811;22;81157;-59
2023/06/28 09:02:18;;;;;;;4.07;1.77;;;24.90;51.80;;;;;;7640954;22;80557;-59
2023/06/28 09:05:18;;;;;;;4.80;2.22;;;24.90;51.60;;;;;;7615057;22;83038;-59
2023/06/28 09:08:19;;;;;;;6.00;2.10;;;24.90;51.50;;;;;;7640584;22;80216;-60
2023/06/28 09:11:19;;;;;;;3.47;1.98;;;24.80;51.20;;;;;;7641563;22;80259;-60
2023/06/28 09:14:20;;;;;;;6.25;1.63;;;24.80;51.50;;;;;;7640931;22;80282;-59
2023/06/28 09:17:20;;;;;;;3.10;1.70;;;24.90;50.90;;;;;;7642408;22;80313;-60
2023/06/28 09:20:21;;;;;;;10.40;2.20;;;24.70;50.80;;;;;;7640203;22;80235;-61
2023/06/28 09:23:21;;;;;;;5.55;1.90;;;24.70;50.90;;;;;;7642042;22;80347;-62
2023/06/28 09:26:22;;;;;;;2.72;1.67;;;24.40;50.90;;;;;;7638965;22;80274;-61
2023/06/28 09:29:23;;;;;;;4.00;1.58;;;24.30;51.20;;;;;;7627704;22;81283;-62
2023/06/28 09:32:23;;;;;;;4.57;1.80;;;24.50;51.20;;;;;;7631342;22;80981;-63
2023/06/28 09:35:24;;;;;;;2.65;1.80;;;24.60;51.40;;;;;;7620541;22;81096;-61
2023/06/28 09:38:24;;;;;;;4.80;1.73;;;24.70;51.20;;;;;;7640388;22;80308;-65
2023/06/28 09:41:26;;;;;;;39.75;3.35;;;24.70;51.20;;;;;;7614327;22;81885;-65
2023/06/28 09:44:27;;;;;;;9.13;2.67;;;24.70;50.70;;;;;;7623112;22;81379;-61
2023/06/28 09:47:28;;;;;;;22.30;2.45;;;24.80;51.40;;;;;;7634773;22;86868;-62
2023/06/28 09:50:29;;;;;;;8.32;1.80;;;24.60;51.70;;;;;;7628468;22;81024;-69
2023/06/28 09:53:31;;;;;;;11.90;2.13;;;24.70;51.60;;;;;;7637139;22;80097;-65
2023/06/28 09:56:33;;;;;;;8.13;2.00;;;24.80;50.90;;;;;;7643196;22;81022;-63
2023/06/28 09:59:33;;;;;;;5.05;1.55;;;24.90;50.80;;;;;;7644235;22;81369;-62
2023/06/28 10:02:34;;;;;;;2.45;1.52;;;24.90;50.80;;;;;;7644236;22;80826;-64
2023/06/28 10:05:34;;;;;;;3.60;1.77;;;24.90;50.80;;;;;;7636146;22;81054;-65
2023/06/28 10:08:35;;;;;;;9.43;2.20;;;24.90;50.70;;;;;;7645989;22;80100;-63
2023/06/28 10:11:35;;;;;;;9.23;2.35;;;24.90;50.90;;;;;;7644108;22;80421;-66
2023/06/28 10:14:36;;;;;;;12.50;2.40;;;25.00;50.20;;;;;;7644063;22;80592;-63
2023/06/28 10:17:36;;;;;;;11.27;2.20;;;24.90;50.30;;;;;;7644206;22;80761;-64
2023/06/28 10:20:38;;;;;;;10.35;2.63;;;24.90;49.50;;;;;;7643142;22;80301;-63
2023/06/28 10:23:39;;;;;;;5.78;1.80;;;24.90;50.00;;;;;;7643354;22;80328;-63
2023/06/28 10:26:39;;;;;;;4.50;1.88;;;25.00;49.40;;;;;;7641684;22;80685;-64
2023/06/28 10:29:40;;;;;;;6.00;1.95;;;24.90;47.90;;;;;;7632830;22;81532;-64
2023/06/28 10:32:40;;;;;;;11.38;2.47;;;24.90;48.50;;;;;;7635632;22;81328;-62
2023/06/28 10:35:41;;;;;;;8.25;2.33;;;24.90;48.10;;;;;;7608878;22;81197;-65
2023/06/28 10:38:45;;;;;;;15.40;2.10;;;25.00;47.50;;;;;;7637407;22;80448;-69
2023/06/28 10:41:45;;;;;;;24.50;2.38;;;24.80;46.60;;;;;;7642956;22;84830;-67
2023/06/28 10:44:46;;;;;;;4.88;1.80;;;24.90;46.50;;;;;;7643652;22;80458;-64
2023/06/28 10:47:46;;;;;;;4.78;1.48;;;24.80;46.30;;;;;;7642967;22;80294;-64
2023/06/28 10:50:47;;;;;;;18.15;2.25;;;24.80;46.20;;;;;;7643731;22;80991;-64
2023/06/28 10:53:47;;;;;;;11.82;2.33;;;24.80;46.70;;;;;;7642660;22;80530;-67
2023/06/28 10:56:48;;;;;;;8.90;2.42;;;24.70;47.00;;;;;;7616686;22;81446;-73
2023/06/28 10:59:48;;;;;;;6.35;1.67;;;24.70;47.00;;;;;;7643186;22;80867;-73
2023/06/28 11:02:49;;;;;;;5.60;1.48;;;24.70;45.90;;;;;;7630656;22;80638;-68
2023/06/28 11:05:49;;;;;;;4.47;1.40;;;24.70;45.80;;;;;;7642881;22;80254;-64
2023/06/28 11:08:50;;;;;;;4.32;1.50;;;24.60;45.80;;;;;;7643143;22;80637;-61
2023/06/28 11:11:50;;;;;;;5.95;1.60;;;24.60;46.80;;;;;;7637851;22;81196;-66
2023/06/28 11:14:51;;;;;;;6.15;1.90;;;24.60;48.00;;;;;;7631425;22;80675;-63
2023/06/28 11:17:51;;;;;;;7.32;1.92;;;24.50;49.40;;;;;;7640056;22;80449;-64
2023/06/28 11:20:52;;;;;;;4.38;1.65;;;24.60;50.90;;;;;;7643015;22;81221;-65
2023/06/28 11:23:53;;;;;;;3.30;1.60;;;24.50;51.80;;;;;;7643362;22;80739;-63
2023/06/28 11:26:53;;;;;;;4.10;1.95;;;24.40;52.50;;;;;;7642497;22;80129;-64
2023/06/28 11:29:54;;;;;;;4.70;1.70;;;24.50;52.70;;;;;;7643197;22;80530;-63
2023/06/28 11:32:54;;;;;;;3.83;2.20;;;24.40;52.70;;;;;;7643133;22;80208;-62
2023/06/28 11:35:55;;;;;;;4.88;1.90;;;24.40;53.20;;;;;;7642464;22;80225;-65
2023/06/28 11:38:55;;;;;;;5.35;2.20;;;24.40;53.60;;;;;;7638416;22;81373;-64
2023/06/28 11:41:56;;;;;;;5.07;2.30;;;24.40;53.70;;;;;;7640237;22;80783;-64
2023/06/28 11:44:56;;;;;;;8.73;2.17;;;24.40;53.50;;;;;;7639199;22;80154;-64
2023/06/28 11:47:57;;;;;;;4.88;2.08;;;24.40;54.20;;;;;;7625343;22;81759;-65
2023/06/28 11:50:57;;;;;;;3.40;1.80;;;24.40;54.60;;;;;;7641241;22;79906;-62
2023/06/28 11:53:58;;;;;;;9.10;2.17;;;24.40;54.50;;;;;;7642461;22;81540;-62
2023/06/28 11:57:00;;;;;;;8.32;1.67;;;24.40;54.50;;;;;;7641095;22;80400;-62
2023/06/28 12:00:01;;;;;;;4.82;1.85;;;24.40;53.90;;;;;;7640831;22;80936;-62
2023/06/28 12:03:12;;;;;;;4.55;1.70;;;24.50;53.40;;;;;;7641011;22;80052;-66
2023/06/28 12:06:12;;;;;;;2.75;1.50;;;24.50;52.80;;;;;;7642058;22;80169;-66
2023/06/28 12:09:13;;;;;;;3.67;1.75;;;24.60;52.70;;;;;;7642625;22;81117;-65
2023/06/28 12:12:13;;;;;;;4.28;1.92;;;24.60;52.60;;;;;;7641452;22;80323;-66
2023/06/28 12:15:14;;;;;;;5.88;2.00;;;24.60;52.10;;;;;;7643406;22;80729;-67
2023/06/28 12:18:14;;;;;;;8.85;2.28;;;24.70;52.10;;;;;;7643592;22;80225;-66
2023/06/28 12:21:15;;;;;;;8.02;2.42;;;24.70;52.00;;;;;;7643305;22;80155;-66
2023/06/28 12:24:21;;;;;;;3.78;2.00;;;24.70;51.80;;;;;;7637346;22;80523;-67
2023/06/28 12:27:21;;;;;;;;;;;24.70;51.70;;;;;;7639489;22;80537;-67
2023/06/28 12:30:22;;;;;;;6.10;2.15;;;24.70;51.30;;;;;;7645096;22;80093;-66
2023/06/28 12:33:23;;;;;;;6.38;1.70;;;24.70;49.90;;;;;;7639564;22;80076;-66
2023/06/28 12:36:23;;;;;;;4.78;1.63;;;24.70;49.00;;;;;;7638244;22;81083;-66
2023/06/28 12:39:24;;;;;;;4.13;1.60;;;24.70;47.90;;;;;;7638721;22;80816;-65
2023/06/28 12:42:26;;;;;;;5.35;1.60;;;24.70;47.20;;;;;;7639911;22;80461;-66
2023/06/28 12:45:27;;;;;;;4.35;1.90;;;24.70;46.50;;;;;;7640278;22;80503;-66
2023/06/28 12:48:28;;;;;;;4.68;1.40;;;24.80;46.60;;;;;;7639267;22;80631;-66
2023/06/28 12:51:28;;;;;;;2.75;1.23;;;24.80;46.60;;;;;;7639233;22;80437;-65
2023/06/28 12:54:29;;;;;;;2.42;1.17;;;24.70;46.00;;;;;;7638856;22;80830;-65
2023/06/28 12:57:30;;;;;;;3.75;1.15;;;24.70;45.60;;;;;;7643468;22;81031;-62
2023/06/28 13:00:31;;;;;;;2.88;1.50;;;24.70;45.60;;;;;;7641764;22;80936;-62
2023/06/28 13:03:31;;;;;;;8.10;1.73;;;24.80;45.90;;;;;;7642288;22;80365;-64
2023/06/28 13:06:32;;;;;;;4.63;1.90;;;24.80;46.20;;;;;;7640864;22;80390;-61
2023/06/28 13:09:32;;;;;;;5.80;1.95;;;24.80;46.40;;;;;;7642537;22;80374;-63
2023/06/28 13:12:33;;;;;;;6.10;1.70;;;24.90;46.60;;;;;;7642238;22;83367;-65
2023/06/28 13:15:36;;;;;;;5.20;1.30;;;24.90;46.70;;;;;;7642640;22;80364;-65
2023/06/28 13:18:36;;;;;;;3.35;1.42;;;24.90;46.60;;;;;;7642341;22;80330;-64
2023/06/28 13:21:37;;;;;;;2.45;1.55;;;24.90;46.70;;;;;;7643426;22;80824;-64
2023/06/28 13:24:37;;;;;;;5.50;1.67;;;25.00;47.20;;;;;;7644152;22;80446;-59
2023/06/28 13:27:38;;;;;;;3.45;1.55;;;25.10;47.40;;;;;;7610541;22;81708;-63
2023/06/28 13:30:38;;;;;;;2.85;1.95;;;25.20;47.60;;;;;;7645042;22;80993;-64
2023/06/28 13:33:39;;;;;;;6.35;2.05;;;25.10;47.60;;;;;;7644741;22;80943;-63
2023/06/28 13:36:39;;;;;;;5.50;1.70;;;25.20;48.00;;;;;;7645661;22;80301;-61
2023/06/28 13:39:40;;;;;;;8.65;2.67;;;25.20;48.00;;;;;;7646038;22;80039;-61
2023/06/28 13:42:40;;;;;;;8.77;3.97;;;25.20;48.10;;;;;;7642018;22;81228;-60
2023/06/28 13:45:41;;;;;;;8.60;5.18;;;25.20;49.60;;;;;;7646127;22;80215;-62
2023/06/28 13:48:41;;;;;;;8.73;4.25;;;25.30;49.20;;;;;;7642974;22;80472;-61
2023/06/28 13:51:42;;;;;;;5.30;3.22;;;25.20;48.40;;;;;;7645175;22;80755;-62
2023/06/28 13:54:42;;;;;;;7.50;3.60;;;25.20;48.30;;;;;;7617952;22;81868;-61
2023/06/28 13:57:43;;;;;;;3.35;2.30;;;25.20;48.00;;;;;;7638806;22;80936;-63
2023/06/28 14:00:43;;;;;;;4.55;2.33;;;25.20;48.20;;;;;;7656012;22;81113;-63
2023/06/28 14:03:43;;;;;;;6.78;2.03;;;25.20;47.70;;;;;;7644468;22;80582;-62
2023/06/28 14:06:44;;;;;;;5.30;2.17;;;25.20;48.00;;;;;;7644522;22;80301;-62
2023/06/28 14:09:44;;;;;;;8.98;2.20;;;25.20;47.50;;;;;;7642372;22;81194;-61
2023/06/28 14:12:45;;;;;;;3.55;1.80;;;25.20;47.80;;;;;;7639823;22;80290;-62
2023/06/28 14:15:46;;;;;;;5.93;2.08;;;25.20;48.00;;;;;;7642014;22;80417;-61
2023/06/28 14:18:46;;;;;;;5.68;2.15;;;25.20;47.90;;;;;;7643744;22;80538;-70
2023/06/28 14:21:47;;;;;;;7.75;1.92;;;25.10;48.30;;;;;;7641606;22;81621;-70
2023/06/28 14:24:47;;;;;;;6.65;2.13;;;25.10;47.00;;;;;;7617302;22;81499;-70
2023/06/28 14:27:48;;;;;;;7.95;2.90;;;25.10;46.00;;;;;;7642097;22;81689;-64
2023/06/28 14:30:48;;;;;;;5.47;1.70;;;25.00;45.20;;;;;;7645014;22;81634;-63
2023/06/28 14:33:49;;;;;;;14.48;2.60;;;25.00;44.80;;;;;;7642156;22;80529;-60
2023/06/28 14:36:49;;;;;;;8.27;2.30;;;25.00;44.70;;;;;;7614800;22;83040;-60
2023/06/28 14:39:50;;;;;;;9.95;1.90;;;25.00;44.40;;;;;;7639634;22;80761;-60
2023/06/28 14:42:50;;;;;;;11.30;2.15;;;25.00;44.40;;;;;;7640850;22;80466;-63
2023/06/28 14:45:51;;;;;;;9.05;2.17;;;25.00;44.60;;;;;;7641200;22;80843;-60
2023/06/28 14:48:51;;;;;;;9.48;1.92;;;25.10;45.20;;;;;;7641924;22;80267;-59
2023/06/28 14:51:52;;;;;;;9.10;2.00;;;25.10;45.60;;;;;;7637315;22;80269;-60
2023/06/28 14:54:52;;;;;;;4.70;1.90;;;25.10;45.90;;;;;;7638762;22;80965;-59
2023/06/28 14:57:53;;;;;;;5.57;1.83;;;25.10;46.10;;;;;;7641359;22;81994;-59
2023/06/28 15:00:53;;;;;;;6.88;2.03;;;25.10;46.50;;;;;;7647025;22;81351;-60
2023/06/28 15:03:54;;;;;;;9.85;2.13;;;25.10;46.80;;;;;;7644314;22;80184;-61
2023/06/28 15:06:54;;;;;;;10.25;2.45;;;25.00;46.80;;;;;;7640116;22;80481;-62
2023/06/28 15:09:55;;;;;;;6.97;1.75;;;24.90;45.60;;;;;;7641739;22;80949;-60
2023/06/28 15:12:56;;;;;;;4.72;1.65;;;24.90;45.60;;;;;;7640071;22;80258;-60
2023/06/28 15:15:56;;;;;;;6.63;1.50;;;24.80;45.90;;;;;;7642536;22;79980;-62
2023/06/28 15:18:57;;;;;;;11.23;2.33;;;24.90;45.90;;;;;;7640996;22;80312;-60
2023/06/28 15:21:57;;;;;;;2.92;1.40;;;24.90;46.10;;;;;;7640294;22;81058;-59
2023/06/28 15:24:58;;;;;;;7.43;1.85;;;24.90;45.80;;;;;;7640971;22;80889;-61
2023/06/28 15:27:58;;;;;;;10.50;1.98;;;24.90;46.00;;;;;;7640954;22;80447;-62
2023/06/28 15:30:59;;;;;;;7.07;1.77;;;24.70;46.10;;;;;;7639001;22;81634;-60
2023/06/28 15:33:59;;;;;;;8.18;2.28;;;24.80;46.30;;;;;;7642238;22;80290;-60
2023/06/28 15:37:00;;;;;;;4.50;2.00;;;24.70;46.40;;;;;;7639653;22;80618;-60
2023/06/28 15:40:01;;;;;;;5.60;1.95;;;24.80;46.50;;;;;;7642440;22;80404;-60